Time;durP1;ratioP1;P1;durP2;ratioP2;P2;SDS_P1;SDS_P2;PMS_P1;PMS_P2;Temp;Humidity;BMP_temperature;BMP_pressure;BME280_temperature;BME280_humidity;BME280_pressure;Samples;Min_cycle;Max_cycle;Signal;HPM_P1;HPM_P2
2023/09/02 00:01:48;;;;;;;4.50;2.60;;;;;;;20.77;62.58;98880.47;6970540;28;20206;-85
2023/09/02 00:05:10;;;;;;;6.80;2.60;;;;;;;;;;6970275;28;20320;-85
2023/09/02 00:08:31;;;;;;;3.70;2.67;;;;;;;21.06;61.81;98861.66;6968761;28;20206;-85
2023/09/02 00:11:53;;;;;;;4.63;2.50;;;;;;;20.99;62.12;98853.69;6970453;28;20285;-85
2023/09/02 00:15:16;;;;;;;6.30;2.50;;;;;;;21.02;61.73;98864.94;6969813;28;20229;-85
2023/09/02 00:18:37;;;;;;;5.37;2.63;;;;;;;21.00;62.22;98892.91;6969795;28;20269;-85
2023/09/02 00:21:59;;;;;;;4.53;2.60;;;;;;;20.42;62.71;98847.44;6969948;28;20248;-85
2023/09/02 00:25:22;;;;;;;2.97;2.50;;;;;;;20.93;62.68;98886.84;6969877;28;20308;-83
2023/09/02 00:28:43;;;;;;;5.80;2.60;;;;;;;21.06;61.96;98880.84;6985549;28;20244;-83
2023/09/02 00:32:06;;;;;;;4.40;2.60;;;;;;;20.71;62.83;98892.50;6969816;28;20213;-83
2023/09/02 00:35:28;;;;;;;4.37;2.97;;;;;;;20.83;62.56;98896.66;6985874;28;20325;-84
2023/09/02 00:38:49;;;;;;;3.63;2.57;;;;;;;20.64;62.85;98866.44;6969355;28;20198;-84
2023/09/02 00:42:12;;;;;;;3.57;2.60;;;;;;;20.78;62.64;98874.69;6974323;28;20541;-84
2023/09/02 00:45:34;;;;;;;4.07;2.70;;;;;;;20.76;62.55;98892.50;6991275;28;20226;-84
2023/09/02 00:48:57;;;;;;;3.00;2.70;;;;;;;20.63;63.04;98897.69;6993698;28;20332;-84
2023/09/02 00:52:19;;;;;;;6.17;3.27;;;;;;;20.40;63.70;98896.16;6992826;28;20650;-84
2023/09/02 00:55:41;;;;;;;3.00;2.70;;;;;;;20.65;63.55;98898.22;7002953;28;20324;-84
2023/09/02 00:59:04;;;;;;;4.27;3.10;;;;;;;20.49;64.02;98893.75;6978520;28;20332;-84
2023/09/02 01:02:26;;;;;;;3.97;2.50;;;;;;;20.83;63.13;98891.16;6969210;28;20691;-83
2023/09/02 01:05:49;;;;;;;6.83;2.60;;;;;;;21.07;61.79;98890.72;6968667;28;20261;-84
2023/09/02 01:09:10;;;;;;;2.93;2.63;;;;;;;20.59;62.34;98900.13;6969327;28;20213;-84
2023/09/02 01:12:32;;;;;;;4.73;2.70;;;;;;;20.21;63.88;98891.41;6968922;28;20248;-84
2023/09/02 01:15:54;;;;;;;3.93;2.70;;;;;;;20.62;63.53;98885.03;6968078;28;20233;-84
2023/09/02 01:19:17;;;;;;;2.47;2.27;;;;;;;20.65;63.81;98890.00;6973243;28;20217;-82
2023/09/02 01:22:58;;;;;;;5.13;2.90;;;;;;;20.60;62.90;98893.56;6974432;28;20359;-84
2023/09/02 01:26:35;;;;;;;6.40;2.93;;;;;;;20.81;62.59;98894.47;6946898;28;20719;-84
2023/09/02 01:30:02;;;;;;;5.43;2.50;;;;;;;20.69;62.71;98891.94;6946575;28;20285;-83
2023/09/02 01:33:26;;;;;;;3.23;2.93;;;;;;;20.46;62.36;98859.50;6981751;28;20399;-84
2023/09/02 01:36:51;;;;;;;6.47;3.10;;;;;;;20.42;63.47;98899.50;6973509;28;20222;-84
2023/09/02 01:40:21;;;;;;;4.37;2.87;;;;;;;20.28;63.77;98897.50;6974659;28;20588;-84
2023/09/02 01:43:45;;;;;;;3.73;2.50;;;;;;;20.32;63.60;98906.81;6998242;28;20316;-84
2023/09/02 01:47:08;;;;;;;3.90;2.70;;;;;;;20.35;63.67;98898.06;6985208;28;20203;-82
2023/09/02 01:50:32;;;;;;;4.87;2.87;;;;;;;19.98;64.38;98884.38;6981528;28;20290;-84
2023/09/02 01:53:53;;;;;;;3.80;2.73;;;;;;;20.38;63.41;98901.09;6976860;28;20268;-82
2023/09/02 01:57:15;;;;;;;6.67;3.50;;;;;;;20.43;62.85;98879.22;6978592;28;20335;-83
2023/09/02 02:00:38;;;;;;;4.57;2.87;;;;;;;20.55;62.94;98909.13;6979746;28;20237;-83
2023/09/02 02:04:08;;;;;;;6.67;2.87;;;;;;;20.26;63.39;98888.69;6980023;28;20242;-83
2023/09/02 02:07:41;;;;;;;5.40;3.00;;;;;;;20.60;62.42;98906.41;6979362;28;20281;-82
2023/09/02 02:11:03;;;;;;;3.43;3.10;;;;;;;20.68;62.20;98901.25;6963294;28;20195;-83
2023/09/02 02:14:24;;;;;;;5.20;2.60;;;;;;;20.58;62.26;98906.69;6951970;28;20223;-83
2023/09/02 02:17:46;;;;;;;4.50;3.07;;;;;;;20.09;63.60;98910.78;6952602;28;20713;-82
2023/09/02 02:21:09;;;;;;;7.10;3.07;;;;;;;20.16;63.47;98894.94;6954940;28;20203;-82
2023/09/02 02:24:30;;;;;;;3.40;3.10;;;;;;;20.23;63.62;98891.97;6968324;28;20281;-83
2023/09/02 02:27:52;;;;;;;3.33;3.03;;;;;;;20.11;64.27;98926.94;6973021;28;20221;-83
2023/09/02 02:31:13;;;;;;;4.40;3.50;;;;;;;20.24;63.61;98915.53;6996297;28;20198;-83
2023/09/02 02:34:35;;;;;;;4.17;3.10;;;;;;;20.36;63.10;98927.09;6979989;28;20317;-83
2023/09/02 02:37:59;;;;;;;5.33;3.20;;;;;;;20.19;63.31;98931.91;6973319;28;20236;-83
2023/09/02 02:41:20;;;;;;;3.57;3.27;;;;;;;20.00;63.57;98926.03;6975075;28;20263;-83
2023/09/02 02:44:42;;;;;;;2.97;2.67;;;;;;;19.60;64.62;98892.03;6973997;28;20319;-83
2023/09/02 02:48:04;;;;;;;4.43;3.33;;;;;;;20.16;64.26;98935.19;6973360;28;20198;-83
2023/09/02 02:51:25;;;;;;;4.13;2.90;;;;;;;20.42;62.34;98926.03;6973771;28;20339;-83
2023/09/02 02:54:48;;;;;;;3.30;2.87;;;;;;;20.10;62.50;98917.09;6973992;28;20314;-83
2023/09/02 02:58:11;;;;;;;4.30;2.90;;;;;;;19.76;63.22;98897.34;6972736;28;20670;-83
2023/09/02 03:01:33;;;;;;;5.13;2.97;;;;;;;19.87;63.33;98933.84;6973733;28;20293;-82
2023/09/02 03:04:54;;;;;;;6.27;2.93;;;;;;;20.12;62.80;98937.63;6973953;28;20257;-83
2023/09/02 03:08:16;;;;;;;3.23;2.70;;;;;;;20.27;62.45;98931.44;6972337;28;20687;-83
2023/09/02 03:11:39;;;;;;;3.70;2.77;;;;;;;20.26;62.44;98941.56;6973204;28;20288;-83
2023/09/02 03:15:00;;;;;;;3.67;2.73;;;;;;;20.36;61.76;98933.41;6973045;28;20313;-83
2023/09/02 03:18:22;;;;;;;6.13;2.77;;;;;;;20.18;61.02;98939.31;6972243;28;20320;-83
2023/09/02 03:21:44;;;;;;;6.97;3.53;;;;;;;19.85;62.28;98953.25;6972763;28;20199;-83
2023/09/02 03:25:06;;;;;;;5.30;3.03;;;;;;;19.70;62.74;98949.56;6966206;28;20306;-83
2023/09/02 03:28:29;;;;;;;4.77;3.30;;;;;;;19.46;63.33;98943.56;6944726;28;20306;-82
2023/09/02 03:31:50;;;;;;;7.20;2.90;;;;;;;19.57;64.03;98948.06;6946138;28;20342;-83
2023/09/02 03:35:12;;;;;;;5.00;3.17;;;;;;;19.78;63.30;98949.91;6948632;28;20312;-83
2023/09/02 03:38:33;;;;;;;6.00;3.20;;;;;;;19.62;63.19;98952.75;6950226;28;20317;-82
2023/09/02 03:41:55;;;;;;;4.83;3.40;;;;;;;19.43;63.47;98946.84;6950178;28;20298;-83
2023/09/02 03:45:18;;;;;;;6.20;3.03;;;;;;;19.12;63.28;98892.91;6948955;28;20728;-84
2023/09/02 03:48:39;;;;;;;6.07;3.27;;;;;;;19.73;62.13;98932.63;6948190;28;20232;-83
2023/09/02 03:52:01;;;;;;;8.17;3.00;;;;;;;19.40;62.07;98900.84;6948745;28;20249;-83
2023/09/02 03:55:22;;;;;;;6.10;2.77;;;;;;;19.21;62.92;98929.66;6947749;28;20258;-82
2023/09/02 03:58:44;;;;;;;4.33;3.13;;;;;;;19.31;63.36;98929.78;6947973;28;20308;-82
2023/09/02 04:02:07;;;;;;;7.37;3.20;;;;;;;18.97;62.65;98829.06;6948295;28;20218;-83
2023/09/02 04:05:29;;;;;;;3.90;2.90;;;;;;;19.56;63.37;98932.75;6951942;28;20447;-82
2023/09/02 04:08:50;;;;;;;4.73;3.37;;;;;;;19.14;64.63;98928.16;6948091;28;20257;-82
2023/09/02 04:12:12;;;;;;;5.17;3.70;;;;;;;19.49;64.14;98950.44;6948331;28;20249;-83
2023/09/02 04:15:33;;;;;;;3.50;3.20;;;;;;;19.66;63.99;98949.25;6954161;28;20241;-84
2023/09/02 04:19:02;;;;;;;3.13;2.93;;;;;;;19.41;63.55;98918.09;6947140;28;20223;-83
2023/09/02 04:22:23;;;;;;;4.10;3.10;;;;;;;19.48;63.75;98951.53;6948502;28;20239;-82
2023/09/02 04:25:46;;;;;;;7.20;3.37;;;;;;;19.48;63.75;98946.06;6948371;28;20312;-83
2023/09/02 04:29:07;;;;;;;4.67;3.20;;;;;;;19.35;63.49;98935.53;6954115;28;20814;-83
2023/09/02 04:32:29;;;;;;;6.57;3.13;;;;;;;19.63;63.34;98957.16;6974927;28;20294;-82
2023/09/02 04:35:52;;;;;;;5.10;3.40;;;;;;;19.44;62.97;98929.34;6976461;28;20635;-83
2023/09/02 04:39:14;;;;;;;5.33;3.30;;;;;;;19.53;62.86;98966.09;6976448;28;20364;-82
2023/09/02 04:42:35;;;;;;;5.60;3.27;;;;;;;19.48;62.79;98963.31;6970491;28;20244;-85
2023/09/02 04:46:01;;;;;;;3.57;3.27;;;;;;;19.33;62.36;98954.13;6975773;28;20297;-83
2023/09/02 04:49:23;;;;;;;6.37;3.13;;;;;;;19.50;62.30;98971.22;6977284;28;20263;-83
2023/09/02 04:52:45;;;;;;;4.43;3.60;;;;;;;19.47;62.78;98980.81;6978652;28;20232;-83
2023/09/02 04:56:07;;;;;;;4.27;3.27;;;;;;;18.90;63.15;98922.19;7004671;28;20229;-83
2023/09/02 04:59:28;;;;;;;3.50;3.20;;;;;;;18.69;64.25;98919.44;7005075;28;20229;-83
2023/09/02 05:02:50;;;;;;;4.57;3.50;;;;;;;19.03;63.84;98970.97;7004892;28;20255;-83
2023/09/02 05:06:12;;;;;;;4.90;3.33;;;;;;;19.11;63.86;98989.63;7004732;28;20314;-83
2023/09/02 05:09:35;;;;;;;4.93;3.40;;;;;;;19.11;63.74;98997.84;7002261;28;20264;-83
2023/09/02 05:12:57;;;;;;;7.73;3.77;;;;;;;19.35;63.32;98993.78;6979006;28;20729;-83
2023/09/02 05:16:18;;;;;;;3.60;3.30;;;;;;;19.27;63.63;98999.72;7004129;28;20779;-82
2023/09/02 05:19:40;;;;;;;7.90;3.70;;;;;;;19.25;63.31;98993.69;6994754;28;20214;-84
2023/09/02 05:23:01;;;;;;;4.60;3.57;;;;;;;18.54;63.56;98879.13;6982415;28;20271;-83
2023/09/02 05:26:25;;;;;;;6.63;3.47;;;;;;;19.34;63.58;99002.25;6976384;28;20715;-83
2023/09/02 05:29:47;;;;;;;5.43;3.50;;;;;;;19.41;63.74;98997.41;6977990;28;20190;-83
2023/09/02 05:33:08;;;;;;;5.33;3.27;;;;;;;19.15;64.01;98966.19;6979868;28;20215;-84
2023/09/02 05:36:30;;;;;;;3.80;3.40;;;;;;;19.43;63.66;98987.88;6979153;28;20864;-83
2023/09/02 05:39:51;;;;;;;5.23;3.40;;;;;;;19.80;63.18;99009.88;6978640;28;20633;-83
2023/09/02 05:43:14;;;;;;;6.87;3.23;;;;;;;19.70;63.31;98999.63;6986863;28;20240;-87
2023/09/02 05:46:35;;;;;;;3.90;3.27;;;;;;;19.49;63.75;98923.09;6988808;28;20210;-84
2023/09/02 05:49:57;;;;;;;6.57;3.43;;;;;;;19.29;63.40;98879.16;6984485;28;20210;-82
2023/09/02 05:53:18;;;;;;;3.70;2.67;;;;;;;20.53;61.98;98990.75;6978193;28;20238;-83
2023/09/02 05:56:40;;;;;;;4.47;2.70;;;;;;;20.46;61.86;98979.22;6973253;28;20210;-82
2023/09/02 06:00:04;;;;;;;3.43;2.60;;;;;;;21.13;60.66;99010.28;6976419;28;20300;-81
2023/09/02 06:03:25;;;;;;;3.13;2.90;;;;;;;21.31;60.73;99007.91;6973076;28;20202;-82
2023/09/02 06:06:47;;;;;;;4.00;2.70;;;;;;;21.33;60.69;99003.81;6978140;28;20221;-82
2023/09/02 06:10:09;;;;;;;2.70;2.50;;;;;;;21.58;60.04;99014.84;6982564;28;20256;-81
2023/09/02 06:13:31;;;;;;;4.10;2.63;;;;;;;21.40;60.09;98982.44;6977520;28;20965;-81
2023/09/02 06:16:54;;;;;;;3.10;2.50;;;;;;;20.83;59.88;98871.97;6977134;28;20364;-81
2023/09/02 06:20:20;;;;;;;4.50;2.60;;;;;;;21.92;59.69;98999.56;6977713;28;20299;-82
2023/09/02 06:23:42;;;;;;;4.83;2.60;;;;;;;22.08;59.49;99003.16;6977674;28;20369;-81
2023/09/02 06:27:04;;;;;;;5.60;3.70;;;;;;;22.51;59.19;98997.94;6976856;28;20383;-82
2023/09/02 06:30:26;;;;;;;4.20;2.57;;;;;;;23.07;57.11;98976.63;6981130;28;20206;-82
2023/09/02 06:33:51;;;;;;;2.73;2.50;;;;;;;23.40;56.73;98996.03;6978625;28;20231;-83
2023/09/02 06:37:13;;;;;;;3.13;2.83;;;;;;;23.31;57.86;98985.91;6976874;28;20292;-82
2023/09/02 06:40:34;;;;;;;2.70;2.50;;;;;;;23.88;56.66;98994.38;6977596;28;20213;-82
2023/09/02 06:43:56;;;;;;;3.40;2.43;;;;;;;23.62;57.07;98990.97;6973000;28;20272;-83
2023/09/02 06:47:17;;;;;;;4.97;2.53;;;;;;;24.22;56.17;98995.22;6975549;28;20688;-83
2023/09/02 06:50:40;;;;;;;3.07;2.63;;;;;;;24.35;55.37;98992.63;6975690;28;20237;-82
2023/09/02 06:54:02;;;;;;;2.60;2.40;;;;;;;24.37;54.51;98967.53;6976649;28;20314;-82
2023/09/02 06:57:24;;;;;;;2.83;2.63;;;;;;;24.56;55.21;98987.75;6975958;28;20220;-82
2023/09/02 07:00:45;;;;;;;3.20;2.67;;;;;;;25.18;54.06;99004.19;6948235;28;20202;-82
2023/09/02 07:04:07;;;;;;;2.40;2.20;;;;;;;25.02;53.67;99003.53;6949778;28;20362;-82
2023/09/02 07:07:30;;;;;;;3.40;2.40;;;;;;;25.27;53.50;99002.44;6949315;28;20587;-84
2023/09/02 07:10:51;;;;;;;3.80;2.37;;;;;;;25.46;52.84;99015.19;6945162;28;20241;-84
2023/09/02 07:14:13;;;;;;;3.13;2.40;;;;;;;24.97;53.85;99024.84;6945140;28;20763;-82
2023/09/02 07:17:34;;;;;;;4.00;2.23;;;;;;;25.67;52.24;99022.03;6947789;28;20230;-84
2023/09/02 07:20:58;;;;;;;4.03;2.10;;;;;;;25.63;52.24;99025.72;6944770;28;20681;-84
2023/09/02 07:24:23;;;;;;;3.30;2.50;;;;;;;25.29;53.62;99020.34;6945160;28;20712;-84
2023/09/02 07:27:45;;;;;;;3.30;2.20;;;;;;;25.67;52.77;99022.03;6950438;28;20210;-82
2023/09/02 07:31:06;;;;;;;5.77;2.40;;;;;;;26.06;52.31;99022.63;6953748;28;20298;-82
2023/09/02 07:34:28;;;;;;;2.30;2.10;;;;;;;27.35;48.68;99023.38;6962525;28;20225;-82
2023/09/02 07:37:49;;;;;;;2.50;2.30;;;;;;;26.81;48.75;99026.06;6975154;28;20230;-83
2023/09/02 07:41:12;;;;;;;3.83;2.20;;;;;;;25.98;50.29;99017.78;6977365;28;20302;-83
2023/09/02 07:44:33;;;;;;;4.27;2.00;;;;;;;25.84;51.95;99038.94;6987853;28;20355;-82
2023/09/02 07:47:55;;;;;;;4.50;2.20;;;;;;;26.37;51.06;99021.00;6984689;28;20229;-83
2023/09/02 07:51:18;;;;;;;2.00;1.73;;;;;;;27.31;48.18;99025.13;6988391;28;20206;-83
2023/09/02 07:54:40;;;;;;;2.50;2.13;;;;;;;26.97;48.31;99031.03;6977783;28;20245;-81
2023/09/02 07:58:03;;;;;;;2.67;1.90;;;;;;;27.95;46.59;99025.66;6974203;28;20686;-82
2023/09/02 08:01:25;;;;;;;2.20;2.00;;;;;;;28.18;46.56;99038.44;6971826;28;20749;-87
2023/09/02 08:04:47;;;;;;;3.33;2.47;;;;;;;28.05;45.95;98994.09;6962082;28;20227;-85
2023/09/02 08:08:08;;;;;;;4.00;2.30;;;;;;;28.29;46.29;99016.81;6972720;28;20241;-83
2023/09/02 08:11:30;;;;;;;2.80;2.10;;;;;;;28.77;45.31;99045.59;6978309;28;20234;-83
2023/09/02 08:14:53;;;;;;;2.93;2.00;;;;;;;28.55;46.07;99028.97;6988230;28;20718;-85
2023/09/02 08:18:14;;;;;;;2.80;2.30;;;;;;;28.74;44.71;99012.91;6986460;28;20263;-82
2023/09/02 08:21:36;;;;;;;3.00;2.00;;;;;;;28.70;43.87;98968.31;6999837;28;20194;-83
2023/09/02 08:24:57;;;;;;;2.30;2.00;;;;;;;29.20;44.73;99041.91;6985464;28;20234;-86
2023/09/02 08:28:19;;;;;;;2.70;2.17;;;;;;;29.64;43.24;99024.28;6989885;28;20195;-84
2023/09/02 08:31:42;;;;;;;2.13;1.90;;;;;;;28.57;44.58;99023.91;6977463;28;20832;-84
2023/09/02 08:35:04;;;;;;;2.30;1.93;;;;;;;28.71;46.00;99025.47;6974585;28;20218;-84
2023/09/02 08:38:26;;;;;;;2.93;2.13;;;;;;;28.07;46.44;99008.50;6977700;28;20231;-87
2023/09/02 08:41:49;;;;;;;2.20;2.00;;;;;;;28.53;45.52;99022.88;6976986;28;20253;-83
2023/09/02 08:45:12;;;;;;;2.13;2.03;;;;;;;28.78;44.96;99038.91;6977011;28;20329;-85
2023/09/02 08:48:35;;;;;;;2.60;1.70;;;;;;;28.47;45.27;99038.84;6971828;28;20211;-86
2023/09/02 08:51:56;;;;;;;3.77;2.17;;;;;;;29.22;44.04;99028.53;6970677;28;20667;-82
2023/09/02 08:55:18;;;;;;;3.70;2.37;;;;;;;29.69;43.87;99041.63;6967740;28;20352;-82
2023/09/02 08:58:40;;;;;;;3.47;2.20;;;;;;;30.24;42.21;99045.50;6968290;28;20409;-85
2023/09/02 09:02:02;;;;;;;3.70;2.30;;;;;;;29.58;43.76;99050.59;6970030;28;20572;-85
2023/09/02 09:05:26;;;;;;;2.10;2.00;;;;;;;30.28;42.73;99052.03;6967424;28;20311;-85
2023/09/02 09:08:48;;;;;;;3.50;2.20;;;;;;;30.07;42.38;99070.47;6958615;28;20610;-82
2023/09/02 09:12:10;;;;;;;2.70;1.90;;;;;;;30.46;41.70;99052.84;6959941;28;20211;-86
2023/09/02 09:15:32;;;;;;;4.33;2.20;;;;;;;30.76;41.44;99058.25;6955758;28;20258;-85
2023/09/02 09:18:54;;;;;;;1.80;1.70;;;;;;;31.03;39.93;99026.41;6957117;28;20224;-83
2023/09/02 09:22:18;;;;;;;2.50;2.10;;;;;;;31.56;39.77;99058.19;6950614;28;20734;-85
2023/09/02 09:25:39;;;;;;;2.80;2.20;;;;;;;29.71;42.06;99060.78;6948989;28;20591;-86
2023/09/02 09:29:01;;;;;;;3.23;2.50;;;;;;;30.62;41.45;99051.19;6945637;28;20205;-85
2023/09/02 09:32:23;;;;;;;3.33;2.40;;;;;;;31.10;41.11;99065.69;6968846;28;20233;-84
2023/09/02 09:35:45;;;;;;;3.40;2.00;;;;;;;31.67;39.47;99070.56;6969480;28;20218;-86
2023/09/02 09:39:08;;;;;;;1.80;1.70;;;;;;;31.93;39.43;99062.91;6969706;28;20316;-82
2023/09/02 09:42:34;;;;;;;5.27;2.10;;;;;;;31.41;38.85;99005.78;6973985;28;20211;-86
2023/09/02 09:45:56;;;;;;;3.23;2.10;;;;;;;31.52;39.13;99064.75;6975620;28;20228;-81
2023/09/02 09:49:22;;;;;;;2.20;1.90;;;;;;;32.12;37.78;99052.09;6976790;28;20217;-83
2023/09/02 09:52:59;;;;;;;3.60;2.10;;;;;;;32.11;37.08;99058.00;6979246;28;20244;-84
2023/09/02 09:56:22;;;;;;;2.17;1.97;;;;;;;31.56;39.82;99009.94;6977957;28;20233;-83
2023/09/02 09:59:51;;;;;;;4.17;2.40;;;;;;;32.48;37.57;99037.56;6978047;28;20279;-83
2023/09/02 10:03:12;;;;;;;2.87;2.33;;;;;;;33.12;36.33;99058.25;6976752;28;20190;-82
2023/09/02 10:06:37;;;;;;;2.93;2.07;;;;;;;32.60;36.49;99049.56;6976637;28;20326;-86
2023/09/02 10:10:00;;;;;;;2.40;2.20;;;;;;;33.46;35.30;99050.31;6978905;28;20207;-84
2023/09/02 10:13:23;;;;;;;6.43;3.00;;;;;;;33.57;34.45;99045.91;6979674;28;20216;-83
2023/09/02 10:16:45;;;;;;;3.67;2.20;;;;;;;33.30;34.69;99040.19;6979095;28;20639;-84
2023/09/02 10:20:08;;;;;;;2.50;2.30;;;;;;;33.26;36.01;99051.19;6985308;28;20366;-85
2023/09/02 10:23:30;;;;;;;2.87;2.07;;;;;;;32.84;37.06;98984.66;6986010;28;20216;-84
2023/09/02 10:26:54;;;;;;;2.73;2.10;;;;;;;32.07;35.88;99057.88;6984188;28;20216;-85
2023/09/02 10:30:21;;;;;;;2.47;2.07;;;;;;;31.07;39.93;99052.44;6986301;28;20204;-84
2023/09/02 10:33:46;;;;;;;3.20;2.00;;;;;;;32.45;35.66;99052.19;6977364;28;20249;-84
2023/09/02 10:37:10;;;;;;;2.13;1.93;;;;;;;32.95;33.64;98969.88;6975303;28;20639;-83
2023/09/02 10:40:37;;;;;;;2.07;1.87;;;;;;;32.57;34.79;99035.50;6977006;28;20311;-83
2023/09/02 10:43:59;;;;;;;2.13;1.93;;;;;;;33.43;33.74;99013.84;6962752;28;20370;-83
2023/09/02 10:47:22;;;;;;;3.43;1.60;;;;;;;33.08;34.18;99048.97;6945731;28;20200;-83
2023/09/02 10:50:44;;;;;;;1.97;1.77;;;;;;;33.62;33.40;99037.28;6944213;28;20248;-80
2023/09/02 10:54:06;;;;;;;2.63;2.07;;;;;;;34.58;29.74;99016.66;6945588;28;20583;-83
2023/09/02 10:57:28;;;;;;;2.50;2.00;;;;;;;33.69;31.04;99020.72;6946603;28;20213;-84
2023/09/02 11:00:49;;;;;;;2.27;1.80;;;;;;;32.50;32.51;99033.28;6946574;28;20693;-79
2023/09/02 11:04:16;;;;;;;3.23;1.53;;;;;;;34.02;31.26;99038.16;6948743;28;20252;-84
2023/09/02 11:07:39;;;;;;;1.80;1.70;;;;;;;34.38;30.34;99026.91;6946056;28;20202;-85
2023/09/02 11:11:00;;;;;;;3.17;2.07;;;;;;;33.03;30.22;98996.09;6947553;28;20210;-85
2023/09/02 11:14:22;;;;;;;2.20;1.60;;;;;;;34.28;28.82;99030.22;6962666;28;20776;-85
2023/09/02 11:17:44;;;;;;;1.93;1.70;;;;;;;34.16;29.95;99030.22;6974193;28;20328;-85
2023/09/02 11:21:07;;;;;;;1.77;1.67;;;;;;;35.02;28.28;99021.16;6976996;28;20690;-85
2023/09/02 11:24:29;;;;;;;1.67;1.57;;;;;;;35.00;27.97;99023.47;6974926;28;20221;-85
2023/09/02 11:27:51;;;;;;;1.97;1.60;;;;;;;34.74;27.82;99026.78;6976049;28;20217;-85
2023/09/02 11:31:13;;;;;;;1.90;1.67;;;;;;;34.56;27.37;99024.63;6982503;28;20311;-85
2023/09/02 11:34:35;;;;;;;1.97;1.57;;;;;;;34.22;28.77;99030.78;6973394;28;20237;-83
2023/09/02 11:37:58;;;;;;;1.80;1.70;;;;;;;33.75;27.98;99024.06;6973849;28;20297;-83
2023/09/02 11:41:20;;;;;;;1.87;1.70;;;;;;;34.49;27.55;99010.44;6971664;28;20687;-84
2023/09/02 11:44:51;;;;;;;3.03;1.70;;;;;;;34.30;28.03;98990.69;6980175;28;20237;-85
2023/09/02 11:48:12;;;;;;;2.37;1.70;;;;;;;35.21;27.58;99021.25;6984035;28;20195;-84
2023/09/02 11:51:34;;;;;;;1.60;1.50;;;;;;;35.47;27.95;99025.16;6984629;28;20211;-83
2023/09/02 11:54:57;;;;;;;1.77;1.50;;;;;;;34.87;26.31;99028.34;6978195;28;20309;-84
2023/09/02 11:58:19;;;;;;;3.27;1.70;;;;;;;34.47;27.05;99010.78;6976520;28;20293;-83
2023/09/02 12:01:40;;;;;;;1.23;1.13;;;;;;;34.83;26.34;99026.66;6974774;28;20217;-84
2023/09/02 12:05:02;;;;;;;1.70;1.50;;;;;;;35.06;26.86;99042.50;6976422;28;20222;-83
2023/09/02 12:08:24;;;;;;;1.90;1.60;;;;;;;34.60;26.68;99039.56;6972258;28;20202;-85
2023/09/02 12:11:46;;;;;;;1.90;1.80;;;;;;;34.79;26.69;99043.31;6970287;28;20230;-85
2023/09/02 12:15:11;;;;;;;1.70;1.60;;;;;;;34.06;27.30;99030.72;6970335;28;20295;-85
2023/09/02 12:18:33;;;;;;;1.73;1.63;;;;;;;34.33;27.54;99040.34;6968925;28;20324;-84
2023/09/02 12:21:55;;;;;;;1.60;1.50;;;;;;;32.58;28.53;98959.75;6969669;28;20299;-85
2023/09/02 12:25:19;;;;;;;2.17;1.73;;;;;;;34.11;26.68;99027.66;6969979;28;20682;-83
2023/09/02 12:28:49;;;;;;;1.90;1.70;;;;;;;35.01;26.04;99030.75;6969088;28;20285;-85
2023/09/02 12:32:11;;;;;;;2.60;1.70;;;;;;;34.63;26.49;99036.03;6969453;28;20549;-84
2023/09/02 12:35:33;;;;;;;2.60;1.67;;;;;;;34.15;27.24;99025.81;6969393;28;20234;-85
2023/09/02 12:38:54;;;;;;;1.80;1.43;;;;;;;34.51;27.24;99039.72;6969251;28;20698;-85
2023/09/02 12:42:17;;;;;;;2.63;1.70;;;;;;;34.47;27.50;99033.19;6969931;28;20253;-84
2023/09/02 12:45:42;;;;;;;3.83;1.73;;;;;;;33.84;28.41;99042.41;6961380;28;20233;-84
2023/09/02 12:49:03;;;;;;;2.77;1.90;;;;;;;34.04;28.31;99035.03;6968108;28;20206;-85
2023/09/02 12:52:27;;;;;;;1.67;1.57;;;;;;;34.28;26.72;99007.81;6968326;28;20214;-85
2023/09/02 12:55:50;;;;;;;2.93;1.80;;;;;;;33.38;28.18;99042.84;6968017;28;20221;-85
2023/09/02 12:59:12;;;;;;;1.67;1.57;;;;;;;34.23;27.87;99041.63;6968690;28;20232;-84
2023/09/02 13:02:35;;;;;;;1.70;1.60;;;;;;;33.13;28.14;99046.75;6968626;28;20855;-85
2023/09/02 13:05:57;;;;;;;2.03;1.63;;;;;;;34.26;27.25;99040.16;6949604;28;20309;-85
2023/09/02 13:09:18;;;;;;;3.10;1.70;;;;;;;34.33;27.58;99049.56;6941631;28;20213;-85
2023/09/02 13:12:41;;;;;;;2.73;1.60;;;;;;;33.32;28.59;99044.22;6941568;28;20744;-82
2023/09/02 13:16:02;;;;;;;2.57;1.67;;;;;;;33.79;28.28;99044.63;6945915;28;20525;-84
2023/09/02 13:19:25;;;;;;;1.50;1.40;;;;;;;32.54;29.30;99047.34;6952493;28;20229;-83
2023/09/02 13:22:49;;;;;;;2.07;1.97;;;;;;;32.75;28.96;99037.78;6952272;28;20224;-84
2023/09/02 13:26:14;;;;;;;2.57;2.03;;;;;;;33.27;29.67;99041.69;6952316;28;20228;-84
2023/09/02 13:29:35;;;;;;;4.83;1.90;;;;;;;33.12;29.07;99039.53;6952693;28;20235;-83
2023/09/02 13:32:57;;;;;;;1.60;1.50;;;;;;;33.04;29.08;99031.25;6952183;28;20542;-83
2023/09/02 13:36:20;;;;;;;1.83;1.60;;;;;;;33.62;29.13;99056.03;6952187;28;20548;-83
2023/09/02 13:39:43;;;;;;;2.20;1.77;;;;;;;33.57;28.71;99036.69;6952561;28;20258;-82
2023/09/02 13:43:06;;;;;;;1.70;1.60;;;;;;;33.77;28.76;99052.53;6952718;28;20201;-83
2023/09/02 13:46:28;;;;;;;1.70;1.47;;;;;;;32.78;29.04;98998.00;6951517;28;20226;-84
2023/09/02 13:49:54;;;;;;;2.57;1.70;;;;;;;33.68;28.14;99055.47;6953289;28;20213;-84
2023/09/02 13:53:19;;;;;;;2.20;1.60;;;;;;;33.22;28.61;98991.56;6953310;28;20205;-85
2023/09/02 13:56:42;;;;;;;2.10;1.70;;;;;;;32.93;29.88;99049.59;6963922;28;20209;-86
2023/09/02 14:00:07;;;;;;;1.50;1.40;;;;;;;32.72;29.90;99071.97;6970449;28;20268;-84
2023/09/02 14:03:30;;;;;;;1.93;1.73;;;;;;;32.80;30.27;99073.91;6985863;28;20213;-85
2023/09/02 14:06:51;;;;;;;3.00;2.00;;;;;;;33.50;29.48;99061.63;6976759;28;20204;-85
2023/09/02 14:10:15;;;;;;;2.23;1.80;;;;;;;32.43;30.81;99072.06;6964825;28;20259;-84
2023/09/02 14:13:38;;;;;;;3.47;2.03;;;;;;;32.62;30.75;99047.28;6981246;28;20298;-85
2023/09/02 14:17:00;;;;;;;2.30;1.60;;;;;;;31.81;31.32;99079.56;6979218;28;20275;-82
2023/09/02 14:20:21;;;;;;;2.20;1.70;;;;;;;32.98;30.23;99064.19;6974560;28;20361;-82
2023/09/02 14:23:43;;;;;;;2.03;1.70;;;;;;;32.92;30.91;99068.38;6975231;28;20715;-86
2023/09/02 14:27:11;;;;;;;1.73;1.63;;;;;;;33.30;30.58;99063.34;6973219;28;20297;-87
2023/09/02 14:30:32;;;;;;;2.50;1.70;;;;;;;33.34;30.75;99060.66;6974943;28;20304;-83
2023/09/02 14:33:54;;;;;;;2.30;1.73;;;;;;;33.13;30.05;99048.75;6959944;28;20367;-85
2023/09/02 14:37:17;;;;;;;3.60;1.90;;;;;;;31.72;31.65;99072.41;6975552;28;20670;-86
2023/09/02 14:40:39;;;;;;;1.60;1.50;;;;;;;32.37;31.65;99067.84;6974960;28;20256;-85
2023/09/02 14:44:02;;;;;;;2.10;1.90;;;;;;;32.45;31.68;99052.19;6970131;28;20272;-86
2023/09/02 14:47:23;;;;;;;1.80;1.70;;;;;;;32.76;31.52;99072.13;6971090;28;20208;-86
2023/09/02 14:50:45;;;;;;;2.17;1.70;;;;;;;32.51;30.96;99042.44;6971726;28;20265;-85
2023/09/02 14:54:06;;;;;;;2.20;2.00;;;;;;;32.70;30.68;99029.59;6970169;28;20280;-87
2023/09/02 14:57:28;;;;;;;1.87;1.77;;;;;;;32.40;31.82;99075.56;6966666;28;20757;-86
2023/09/02 15:00:54;;;;;;;2.00;1.80;;;;;;;32.62;31.48;99089.16;6972376;28;20228;-87
2023/09/02 15:04:17;;;;;;;1.60;1.50;;;;;;;32.95;31.00;99087.22;6973086;28;20311;-87
2023/09/02 15:07:40;;;;;;;1.90;1.70;;;;;;;32.34;32.33;99092.84;6965667;28;20245;-86
2023/09/02 15:11:02;;;;;;;2.10;1.90;;;;;;;32.61;31.56;99078.34;6974405;28;20250;-85
2023/09/02 15:14:25;;;;;;;2.00;1.83;;;;;;;32.13;31.05;99039.78;6973400;28;20356;-84
2023/09/02 15:17:48;;;;;;;1.50;1.40;;;;;;;33.00;30.42;99094.56;6968784;28;20622;-87
2023/09/02 15:21:10;;;;;;;1.67;1.57;;;;;;;32.69;31.62;99092.22;6971889;28;20276;-86
2023/09/02 15:24:33;;;;;;;3.43;1.90;;;;;;;31.36;33.43;99025.47;6965147;28;20223;-86
2023/09/02 15:27:55;;;;;;;1.90;1.80;;;;;;;32.04;33.09;99092.06;6971000;28;20293;-87
2023/09/02 15:31:17;;;;;;;2.87;1.77;;;;;;;32.54;32.25;99087.25;6972300;28;20285;-88
2023/09/02 15:34:42;;;;;;;2.43;2.23;;;;;;;32.49;32.42;99081.06;6970802;28;20243;-86
2023/09/02 15:38:04;;;;;;;4.00;2.00;;;;;;;32.27;32.58;99087.81;6970909;28;20201;-87
2023/09/02 15:41:26;;;;;;;2.13;1.80;;;;;;;32.20;33.09;99086.69;6970869;28;20267;-86
2023/09/02 15:44:47;;;;;;;1.93;1.80;;;;;;;32.39;32.95;99079.50;6970720;28;20231;-87
2023/09/02 15:48:09;;;;;;;3.17;1.77;;;;;;;32.46;32.83;99096.53;6970047;28;20202;-86
2023/09/02 15:51:32;;;;;;;2.67;1.60;;;;;;;31.41;32.74;98985.44;6971012;28;20245;-86
2023/09/02 15:54:53;;;;;;;1.50;1.40;;;;;;;32.22;33.10;99103.91;6971106;28;20240;-87